sensor_id;sensor_type;location;lat;lon;timestamp;pressure;altitude;pressure_sealevel;temperature;humidity
77062;BME280;65989;51.686;5.138;2023-12-07T00:01:29;102074.44;;;-0.59;100.00
77062;BME280;65989;51.686;5.138;2023-12-07T00:03:54;102075.94;;;-0.56;100.00
77062;BME280;65989;51.686;5.138;2023-12-07T00:06:20;102071.53;;;-0.56;100.00
77062;BME280;65989;51.686;5.138;2023-12-07T00:08:45;102063.06;;;-0.58;100.00
77062;BME280;65989;51.686;5.138;2023-12-07T00:11:10;102060.06;;;-0.63;100.00
77062;BME280;65989;51.686;5.138;2023-12-07T00:13:36;102060.75;;;-0.61;100.00
77062;BME280;65989;51.686;5.138;2023-12-07T00:16:01;102069.53;;;-0.62;100.00
77062;BME280;65989;51.686;5.138;2023-12-07T00:18:27;102071.63;;;-0.66;100.00
77062;BME280;65989;51.686;5.138;2023-12-07T00:20:52;102072.75;;;-0.68;100.00
77062;BME280;65989;51.686;5.138;2023-12-07T00:23:18;102075.63;;;-0.71;100.00
77062;BME280;65989;51.686;5.138;2023-12-07T00:25:43;102068.78;;;-0.72;100.00
77062;BME280;65989;51.686;5.138;2023-12-07T00:28:11;102078.53;;;-0.74;100.00
77062;BME280;65989;51.686;5.138;2023-12-07T00:30:36;102071.00;;;-0.78;100.00
77062;BME280;65989;51.686;5.138;2023-12-07T00:33:02;102064.31;;;-0.80;100.00
77062;BME280;65989;51.686;5.138;2023-12-07T00:35:27;102064.63;;;-0.83;100.00
77062;BME280;65989;51.686;5.138;2023-12-07T00:37:57;102063.94;;;-0.85;100.00
77062;BME280;65989;51.686;5.138;2023-12-07T00:40:23;102061.63;;;-0.88;100.00
77062;BME280;65989;51.686;5.138;2023-12-07T00:42:49;102064.38;;;-0.90;100.00
77062;BME280;65989;51.686;5.138;2023-12-07T00:45:17;102057.81;;;-0.94;100.00
77062;BME280;65989;51.686;5.138;2023-12-07T00:47:43;102070.81;;;-0.94;100.00
77062;BME280;65989;51.686;5.138;2023-12-07T00:50:11;102063.19;;;-0.96;100.00
77062;BME280;65989;51.686;5.138;2023-12-07T00:52:37;102071.94;;;-0.97;100.00
77062;BME280;65989;51.686;5.138;2023-12-07T00:55:02;102069.72;;;-0.92;100.00
77062;BME280;65989;51.686;5.138;2023-12-07T00:57:28;102065.50;;;-0.93;100.00
77062;BME280;65989;51.686;5.138;2023-12-07T00:59:53;102057.81;;;-0.94;100.00
77062;BME280;65989;51.686;5.138;2023-12-07T01:02:19;102069.06;;;-0.94;100.00
77062;BME280;65989;51.686;5.138;2023-12-07T01:04:44;102070.97;;;-0.96;100.00
77062;BME280;65989;51.686;5.138;2023-12-07T01:07:10;102071.44;;;-1.00;100.00
77062;BME280;65989;51.686;5.138;2023-12-07T01:09:36;102078.28;;;-0.99;100.00
77062;BME280;65989;51.686;5.138;2023-12-07T01:12:01;102081.28;;;-1.04;100.00
77062;BME280;65989;51.686;5.138;2023-12-07T01:14:26;102089.25;;;-1.06;100.00
77062;BME280;65989;51.686;5.138;2023-12-07T01:16:52;102088.13;;;-1.03;100.00
77062;BME280;65989;51.686;5.138;2023-12-07T01:19:17;102081.84;;;-1.10;100.00
77062;BME280;65989;51.686;5.138;2023-12-07T01:21:43;102080.91;;;-1.09;100.00
77062;BME280;65989;51.686;5.138;2023-12-07T01:24:08;102064.25;;;-1.16;100.00
77062;BME280;65989;51.686;5.138;2023-12-07T01:26:34;102075.03;;;-1.11;100.00
77062;BME280;65989;51.686;5.138;2023-12-07T01:28:59;102081.19;;;-1.12;100.00
77062;BME280;65989;51.686;5.138;2023-12-07T01:31:25;102078.59;;;-1.12;100.00
77062;BME280;65989;51.686;5.138;2023-12-07T01:33:50;102084.75;;;-1.13;100.00
77062;BME280;65989;51.686;5.138;2023-12-07T01:36:16;102076.28;;;-1.15;100.00
77062;BME280;65989;51.686;5.138;2023-12-07T01:38:42;102071.66;;;-1.22;100.00
77062;BME280;65989;51.686;5.138;2023-12-07T01:41:08;102079.19;;;-1.18;100.00
77062;BME280;65989;51.686;5.138;2023-12-07T01:43:34;102086.31;;;-1.21;100.00
77062;BME280;65989;51.686;5.138;2023-12-07T01:45:59;102078.63;;;-1.22;100.00
77062;BME280;65989;51.686;5.138;2023-12-07T01:48:26;102072.91;;;-1.26;100.00
77062;BME280;65989;51.686;5.138;2023-12-07T01:50:53;102078.25;;;-1.27;100.00
77062;BME280;65989;51.686;5.138;2023-12-07T01:53:21;102069.91;;;-1.31;100.00
77062;BME280;65989;51.686;5.138;2023-12-07T01:55:47;102074.97;;;-1.29;100.00
77062;BME280;65989;51.686;5.138;2023-12-07T01:58:14;102087.00;;;-1.28;100.00
77062;BME280;65989;51.686;5.138;2023-12-07T02:00:41;102090.44;;;-1.28;100.00
77062;BME280;65989;51.686;5.138;2023-12-07T02:03:07;102076.53;;;-1.37;100.00
77062;BME280;65989;51.686;5.138;2023-12-07T02:05:33;102087.97;;;-1.29;100.00
77062;BME280;65989;51.686;5.138;2023-12-07T02:07:58;102088.13;;;-1.31;100.00
77062;BME280;65989;51.686;5.138;2023-12-07T02:10:24;102078.97;;;-1.35;100.00
77062;BME280;65989;51.686;5.138;2023-12-07T02:12:50;102083.06;;;-1.32;100.00
77062;BME280;65989;51.686;5.138;2023-12-07T02:15:16;102090.03;;;-1.33;100.00
77062;BME280;65989;51.686;5.138;2023-12-07T02:18:11;102104.94;;;-1.25;100.00
77062;BME280;65989;51.686;5.138;2023-12-07T02:20:45;102096.59;;;-1.29;100.00
77062;BME280;65989;51.686;5.138;2023-12-07T02:23:14;102082.63;;;-1.28;100.00
77062;BME280;65989;51.686;5.138;2023-12-07T02:25:51;102080.84;;;-1.27;100.00
77062;BME280;65989;51.686;5.138;2023-12-07T02:28:17;102090.28;;;-1.26;100.00
77062;BME280;65989;51.686;5.138;2023-12-07T02:30:43;102080.16;;;-1.29;100.00
77062;BME280;65989;51.686;5.138;2023-12-07T02:33:08;102066.47;;;-1.31;100.00
77062;BME280;65989;51.686;5.138;2023-12-07T02:35:35;102074.97;;;-1.29;100.00
77062;BME280;65989;51.686;5.138;2023-12-07T02:38:01;102067.84;;;-1.27;100.00
77062;BME280;65989;51.686;5.138;2023-12-07T02:40:27;102069.47;;;-1.26;100.00
77062;BME280;65989;51.686;5.138;2023-12-07T02:42:54;102079.88;;;-1.26;100.00
77062;BME280;65989;51.686;5.138;2023-12-07T02:45:19;102078.25;;;-1.27;100.00
77062;BME280;65989;51.686;5.138;2023-12-07T02:47:45;102082.91;;;-1.31;100.00
77062;BME280;65989;51.686;5.138;2023-12-07T02:50:11;102084.94;;;-1.25;100.00
77062;BME280;65989;51.686;5.138;2023-12-07T02:52:37;102080.28;;;-1.21;100.00
77062;BME280;65989;51.686;5.138;2023-12-07T02:55:03;102082.81;;;-1.11;100.00
77062;BME280;65989;51.686;5.138;2023-12-07T02:57:29;102073.25;;;-1.11;100.00
77062;BME280;65989;51.686;5.138;2023-12-07T02:59:55;102073.34;;;-1.02;100.00
77062;BME280;65989;51.686;5.138;2023-12-07T03:02:21;102072.75;;;-0.96;100.00
77062;BME280;65989;51.686;5.138;2023-12-07T03:04:46;102070.97;;;-0.96;100.00
77062;BME280;65989;51.686;5.138;2023-12-07T03:07:12;102073.97;;;-0.91;100.00
77062;BME280;65989;51.686;5.138;2023-12-07T03:09:37;102079.56;;;-0.85;100.00
77062;BME280;65989;51.686;5.138;2023-12-07T03:12:03;102078.94;;;-0.79;100.00
77062;BME280;65989;51.686;5.138;2023-12-07T03:14:28;102080.47;;;-0.77;100.00
77062;BME280;65989;51.686;5.138;2023-12-07T03:16:54;102083.56;;;-0.73;100.00
77062;BME280;65989;51.686;5.138;2023-12-07T03:19:19;102081.81;;;-0.72;100.00
77062;BME280;65989;51.686;5.138;2023-12-07T03:21:45;102074.66;;;-0.70;100.00
77062;BME280;65989;51.686;5.138;2023-12-07T03:24:10;102081.34;;;-0.68;100.00
77062;BME280;65989;51.686;5.138;2023-12-07T03:26:36;102086.09;;;-0.63;100.00
77062;BME280;65989;51.686;5.138;2023-12-07T03:29:02;102089.38;;;-0.61;100.00
77062;BME280;65989;51.686;5.138;2023-12-07T03:31:27;102088.41;;;-0.60;100.00
77062;BME280;65989;51.686;5.138;2023-12-07T03:33:53;102101.69;;;-0.53;100.00
77062;BME280;65989;51.686;5.138;2023-12-07T03:36:18;102093.72;;;-0.52;100.00
77062;BME280;65989;51.686;5.138;2023-12-07T03:38:44;102098.13;;;-0.52;100.00
77062;BME280;65989;51.686;5.138;2023-12-07T03:41:09;102108.22;;;-0.49;100.00
77062;BME280;65989;51.686;5.138;2023-12-07T03:43:35;102103.69;;;-0.47;100.00
77062;BME280;65989;51.686;5.138;2023-12-07T03:46:04;102104.34;;;-0.45;100.00
77062;BME280;65989;51.686;5.138;2023-12-07T03:48:30;102111.88;;;-0.42;100.00
77062;BME280;65989;51.686;5.138;2023-12-07T03:50:55;102107.34;;;-0.40;100.00
77062;BME280;65989;51.686;5.138;2023-12-07T03:53:20;102106.22;;;-0.37;100.00
77062;BME280;65989;51.686;5.138;2023-12-07T03:55:46;102098.25;;;-0.36;100.00
77062;BME280;65989;51.686;5.138;2023-12-07T03:58:11;102105.25;;;-0.36;100.00
77062;BME280;65989;51.686;5.138;2023-12-07T04:00:38;102084.84;;;-0.41;100.00
77062;BME280;65989;51.686;5.138;2023-12-07T04:03:04;102093.34;;;-0.39;100.00
77062;BME280;65989;51.686;5.138;2023-12-07T04:05:30;102103.25;;;-0.24;100.00
77062;BME280;65989;51.686;5.138;2023-12-07T04:07:55;102109.44;;;-0.25;100.00
77062;BME280;65989;51.686;5.138;2023-12-07T04:10:21;102103.38;;;-0.26;100.00
77062;BME280;65989;51.686;5.138;2023-12-07T04:12:46;102109.63;;;-0.19;100.00
77062;BME280;65989;51.686;5.138;2023-12-07T04:15:12;102101.69;;;-0.17;100.00
77062;BME280;65989;51.686;5.138;2023-12-07T04:17:37;102103.16;;;-0.14;100.00
77062;BME280;65989;51.686;5.138;2023-12-07T04:20:03;102109.19;;;-0.14;100.00
77062;BME280;65989;51.686;5.138;2023-12-07T04:22:29;102109.84;;;-0.12;100.00
77062;BME280;65989;51.686;5.138;2023-12-07T04:24:54;102117.53;;;-0.10;100.00
77062;BME280;65989;51.686;5.138;2023-12-07T04:27:20;102124.75;;;-0.04;100.00
77062;BME280;65989;51.686;5.138;2023-12-07T04:29:45;102112.69;;;-0.05;100.00
77062;BME280;65989;51.686;5.138;2023-12-07T04:32:10;102108.28;;;-0.05;100.00
77062;BME280;65989;51.686;5.138;2023-12-07T04:34:36;102121.84;;;-0.01;100.00
77062;BME280;65989;51.686;5.138;2023-12-07T04:37:01;102121.69;;;0.01;100.00
77062;BME280;65989;51.686;5.138;2023-12-07T04:39:27;102110.28;;;0.02;100.00
77062;BME280;65989;51.686;5.138;2023-12-07T04:41:54;102103.16;;;0.04;100.00
77062;BME280;65989;51.686;5.138;2023-12-07T04:44:19;102105.59;;;0.05;100.00
77062;BME280;65989;51.686;5.138;2023-12-07T04:46:44;102098.75;;;0.04;100.00
77062;BME280;65989;51.686;5.138;2023-12-07T04:49:10;102098.75;;;0.04;100.00
77062;BME280;65989;51.686;5.138;2023-12-07T04:51:35;102104.13;;;0.03;100.00
77062;BME280;65989;51.686;5.138;2023-12-07T04:54:01;102104.25;;;0.01;100.00
77062;BME280;65989;51.686;5.138;2023-12-07T04:56:27;102099.00;;;-0.07;100.00
77062;BME280;65989;51.686;5.138;2023-12-07T04:58:52;102094.88;;;-0.10;100.00
77062;BME280;65989;51.686;5.138;2023-12-07T05:01:17;102099.13;;;-0.09;100.00
77062;BME280;65989;51.686;5.138;2023-12-07T05:03:44;102099.81;;;-0.07;100.00
77062;BME280;65989;51.686;5.138;2023-12-07T05:06:10;102085.59;;;-0.12;100.00
77062;BME280;65989;51.686;5.138;2023-12-07T05:08:35;102078.25;;;-0.17;100.00
77062;BME280;65989;51.686;5.138;2023-12-07T05:11:00;102092.75;;;-0.14;100.00
77062;BME280;65989;51.686;5.138;2023-12-07T05:13:26;102090.44;;;-0.18;100.00
77062;BME280;65989;51.686;5.138;2023-12-07T05:15:51;102085.16;;;-0.26;100.00
77062;BME280;65989;51.686;5.138;2023-12-07T05:18:17;102088.97;;;-0.20;100.00
77062;BME280;65989;51.686;5.138;2023-12-07T05:20:42;102090.44;;;-0.18;100.00
77062;BME280;65989;51.686;5.138;2023-12-07T05:23:08;102081.66;;;-0.17;100.00
77062;BME280;65989;51.686;5.138;2023-12-07T05:25:34;102093.25;;;-0.11;100.00
77062;BME280;65989;51.686;5.138;2023-12-07T05:27:59;102095.19;;;-0.13;100.00
77062;BME280;65989;51.686;5.138;2023-12-07T05:30:24;102089.00;;;-0.12;100.00
77062;BME280;65989;51.686;5.138;2023-12-07T05:32:50;102087.22;;;-0.11;100.00
77062;BME280;65989;51.686;5.138;2023-12-07T05:35:16;102096.69;;;-0.10;100.00
77062;BME280;65989;51.686;5.138;2023-12-07T05:37:41;102089.69;;;-0.10;100.00
77062;BME280;65989;51.686;5.138;2023-12-07T05:40:07;102097.78;;;-0.13;100.00
77062;BME280;65989;51.686;5.138;2023-12-07T05:42:33;102095.66;;;-0.18;100.00
77062;BME280;65989;51.686;5.138;2023-12-07T05:44:58;102092.06;;;-0.17;100.00
77062;BME280;65989;51.686;5.138;2023-12-07T05:47:25;102088.78;;;-0.19;100.00
77062;BME280;65989;51.686;5.138;2023-12-07T05:49:51;102087.03;;;-0.18;100.00
77062;BME280;65989;51.686;5.138;2023-12-07T05:52:16;102090.44;;;-0.18;100.00
77062;BME280;65989;51.686;5.138;2023-12-07T05:54:41;102080.31;;;-0.21;100.00
77062;BME280;65989;51.686;5.138;2023-12-07T05:57:08;102077.03;;;-0.23;100.00
77062;BME280;65989;51.686;5.138;2023-12-07T05:59:37;102079.81;;;-0.24;100.00
77062;BME280;65989;51.686;5.138;2023-12-07T06:02:03;102078.47;;;-0.28;100.00
77062;BME280;65989;51.686;5.138;2023-12-07T06:04:29;102075.03;;;-0.29;100.00
77062;BME280;65989;51.686;5.138;2023-12-07T06:06:55;102093.34;;;-0.21;100.00
77062;BME280;65989;51.686;5.138;2023-12-07T06:09:20;102083.75;;;-0.20;100.00
77062;BME280;65989;51.686;5.138;2023-12-07T06:11:46;102093.03;;;-0.18;100.00
77062;BME280;65989;51.686;5.138;2023-12-07T06:14:11;102077.03;;;-0.23;100.00
77062;BME280;65989;51.686;5.138;2023-12-07T06:16:36;102088.97;;;-0.20;100.00
77062;BME280;65989;51.686;5.138;2023-12-07T06:19:02;102098.41;;;-0.19;100.00
77062;BME280;65989;51.686;5.138;2023-12-07T06:21:28;102104.31;;;-0.17;100.00
77062;BME280;65989;51.686;5.138;2023-12-07T06:23:55;102090.13;;;-0.14;100.00
77062;BME280;65989;51.686;5.138;2023-12-07T06:26:21;102090.66;;;-0.11;100.00
77062;BME280;65989;51.686;5.138;2023-12-07T06:28:47;102082.41;;;-0.06;100.00
77062;BME280;65989;51.686;5.138;2023-12-07T06:31:12;102076.22;;;-0.05;100.00
77062;BME280;65989;51.686;5.138;2023-12-07T06:33:40;102072.94;;;-0.07;100.00
77062;BME280;65989;51.686;5.138;2023-12-07T06:36:05;102070.47;;;-0.09;100.00
77062;BME280;65989;51.686;5.138;2023-12-07T06:38:31;102057.44;;;-0.09;100.00
77062;BME280;65989;51.686;5.138;2023-12-07T06:40:57;102048.00;;;-0.10;100.00
77062;BME280;65989;51.686;5.138;2023-12-07T06:43:22;102044.41;;;-0.09;100.00
77062;BME280;65989;51.686;5.138;2023-12-07T06:45:48;102042.63;;;-0.08;100.00
77062;BME280;65989;51.686;5.138;2023-12-07T06:48:13;102048.66;;;-0.08;100.00
77062;BME280;65989;51.686;5.138;2023-12-07T06:50:39;102048.34;;;-0.05;100.00
77062;BME280;65989;51.686;5.138;2023-12-07T06:53:04;102045.91;;;-0.06;100.00
77062;BME280;65989;51.686;5.138;2023-12-07T06:55:30;102059.44;;;-0.03;100.00
77062;BME280;65989;51.686;5.138;2023-12-07T06:57:55;102065.16;;;0.01;100.00
77062;BME280;65989;51.686;5.138;2023-12-07T07:00:21;102064.34;;;0.01;100.00
77062;BME280;65989;51.686;5.138;2023-12-07T07:02:47;102073.34;;;0.06;100.00
77062;BME280;65989;51.686;5.138;2023-12-07T07:05:12;102071.41;;;0.08;100.00
77062;BME280;65989;51.686;5.138;2023-12-07T07:07:38;102061.66;;;0.10;100.00
77062;BME280;65989;51.686;5.138;2023-12-07T07:10:04;102070.00;;;0.14;100.00
77062;BME280;65989;51.686;5.138;2023-12-07T07:12:30;102067.06;;;0.17;100.00
77062;BME280;65989;51.686;5.138;2023-12-07T07:14:56;102064.78;;;0.14;100.00
77062;BME280;65989;51.686;5.138;2023-12-07T07:17:21;102058.59;;;0.15;100.00
77062;BME280;65989;51.686;5.138;2023-12-07T07:19:46;102058.75;;;0.13;100.00
77062;BME280;65989;51.686;5.138;2023-12-07T07:22:12;102074.28;;;0.23;100.00
77062;BME280;65989;51.686;5.138;2023-12-07T07:24:37;102085.91;;;0.29;100.00
77062;BME280;65989;51.686;5.138;2023-12-07T07:27:03;102089.31;;;0.29;100.00
77062;BME280;65989;51.686;5.138;2023-12-07T07:29:28;102090.81;;;0.32;100.00
77062;BME280;65989;51.686;5.138;2023-12-07T07:31:54;102084.63;;;0.33;100.00
77062;BME280;65989;51.686;5.138;2023-12-07T07:34:21;102082.00;;;0.33;100.00
77062;BME280;65989;51.686;5.138;2023-12-07T07:36:46;102068.25;;;0.23;100.00
77062;BME280;65989;51.686;5.138;2023-12-07T07:39:12;102067.28;;;0.24;100.00
77062;BME280;65989;51.686;5.138;2023-12-07T07:41:39;102059.28;;;0.25;100.00
77062;BME280;65989;51.686;5.138;2023-12-07T07:44:04;102064.50;;;0.25;100.00
77062;BME280;65989;51.686;5.138;2023-12-07T07:46:30;102068.91;;;0.25;100.00
77062;BME280;65989;51.686;5.138;2023-12-07T07:48:55;102067.28;;;0.24;100.00
77062;BME280;65989;51.686;5.138;2023-12-07T07:51:20;102065.84;;;0.29;100.00
77062;BME280;65989;51.686;5.138;2023-12-07T07:53:46;102059.81;;;0.29;100.00
77062;BME280;65989;51.686;5.138;2023-12-07T07:56:14;102065.72;;;0.31;100.00
77062;BME280;65989;51.686;5.138;2023-12-07T07:58:39;102076.28;;;0.29;100.00
77062;BME280;65989;51.686;5.138;2023-12-07T08:01:05;102074.13;;;0.25;100.00
77062;BME280;65989;51.686;5.138;2023-12-07T08:03:30;102076.28;;;0.29;100.00
77062;BME280;65989;51.686;5.138;2023-12-07T08:05:56;102066.69;;;0.30;100.00
77062;BME280;65989;51.686;5.138;2023-12-07T08:08:21;102070.09;;;0.31;100.00
77062;BME280;65989;51.686;5.138;2023-12-07T08:10:47;102075.00;;;0.34;100.00
77062;BME280;65989;51.686;5.138;2023-12-07T08:13:12;102073.06;;;0.36;100.00
77062;BME280;65989;51.686;5.138;2023-12-07T08:15:38;102071.25;;;0.36;100.00
77062;BME280;65989;51.686;5.138;2023-12-07T08:18:03;102063.44;;;0.36;100.00
77062;BME280;65989;51.686;5.138;2023-12-07T08:20:29;102051.03;;;0.30;100.00
77062;BME280;65989;51.686;5.138;2023-12-07T08:22:54;102071.31;;;0.44;100.00
77062;BME280;65989;51.686;5.138;2023-12-07T08:25:20;102064.31;;;0.45;100.00
77062;BME280;65989;51.686;5.138;2023-12-07T08:27:46;102071.50;;;0.51;100.00
77062;BME280;65989;51.686;5.138;2023-12-07T08:30:13;102079.84;;;0.55;100.00
77062;BME280;65989;51.686;5.138;2023-12-07T08:32:38;102080.66;;;0.55;100.00
77062;BME280;65989;51.686;5.138;2023-12-07T08:35:05;102075.13;;;0.58;100.00
77062;BME280;65989;51.686;5.138;2023-12-07T08:37:31;102071.22;;;0.63;100.00
77062;BME280;65989;51.686;5.138;2023-12-07T08:39:57;102065.88;;;0.64;100.00
77062;BME280;65989;51.686;5.138;2023-12-07T08:42:23;102069.28;;;0.65;100.00
77062;BME280;65989;51.686;5.138;2023-12-07T08:44:48;102080.22;;;0.68;100.00
77062;BME280;65989;51.686;5.138;2023-12-07T08:47:14;102078.56;;;0.67;100.00
77062;BME280;65989;51.686;5.138;2023-12-07T08:49:39;102078.13;;;0.72;100.00
77062;BME280;65989;51.686;5.138;2023-12-07T08:52:04;102085.97;;;0.72;100.00
77062;BME280;65989;51.686;5.138;2023-12-07T08:54:31;102085.66;;;0.75;100.00
77062;BME280;65989;51.686;5.138;2023-12-07T08:56:56;102067.53;;;0.73;100.00
77062;BME280;65989;51.686;5.138;2023-12-07T08:59:22;102070.13;;;0.73;100.00
77062;BME280;65989;51.686;5.138;2023-12-07T09:01:47;102067.22;;;0.77;100.00
77062;BME280;65989;51.686;5.138;2023-12-07T09:04:13;102055.81;;;0.78;100.00
77062;BME280;65989;51.686;5.138;2023-12-07T09:06:38;102055.81;;;0.78;100.00
77062;BME280;65989;51.686;5.138;2023-12-07T09:09:04;102048.28;;;0.74;100.00
77062;BME280;65989;51.686;5.138;2023-12-07T09:11:30;102056.94;;;0.83;100.00
77062;BME280;65989;51.686;5.138;2023-12-07T09:13:55;102063.19;;;0.82;100.00
77062;BME280;65989;51.686;5.138;2023-12-07T09:16:21;102056.16;;;0.83;100.00
77062;BME280;65989;51.686;5.138;2023-12-07T09:18:47;102065.13;;;0.88;100.00
77062;BME280;65989;51.686;5.138;2023-12-07T09:21:12;102062.53;;;0.88;100.00
77062;BME280;65989;51.686;5.138;2023-12-07T09:23:38;102056.50;;;0.88;100.00
77062;BME280;65989;51.686;5.138;2023-12-07T09:26:04;102063.69;;;0.94;100.00
77062;BME280;65989;51.686;5.138;2023-12-07T09:28:29;102062.41;;;0.98;100.00
77062;BME280;65989;51.686;5.138;2023-12-07T09:30:54;102058.00;;;0.99;100.00
77062;BME280;65989;51.686;5.138;2023-12-07T09:33:20;102048.03;;;1.02;100.00
77062;BME280;65989;51.686;5.138;2023-12-07T09:35:45;102043.16;;;1.08;100.00
77062;BME280;65989;51.686;5.138;2023-12-07T09:38:11;102051.81;;;1.16;100.00
77062;BME280;65989;51.686;5.138;2023-12-07T09:40:36;102043.22;;;1.24;100.00
77062;BME280;65989;51.686;5.138;2023-12-07T09:43:02;102039.63;;;1.25;100.00
77062;BME280;65989;51.686;5.138;2023-12-07T09:45:27;102036.03;;;1.34;100.00
77062;BME280;65989;51.686;5.138;2023-12-07T09:47:54;102034.59;;;1.40;100.00
77062;BME280;65989;51.686;5.138;2023-12-07T09:50:21;102034.41;;;1.42;100.00
77062;BME280;65989;51.686;5.138;2023-12-07T09:52:51;102021.84;;;1.37;100.00
77062;BME280;65989;51.686;5.138;2023-12-07T09:55:17;102016.44;;;1.39;100.00
77062;BME280;65989;51.686;5.138;2023-12-07T09:57:44;102018.59;;;1.43;100.00
77062;BME280;65989;51.686;5.138;2023-12-07T10:00:11;102001.09;;;1.36;100.00
77062;BME280;65989;51.686;5.138;2023-12-07T10:02:39;102001.28;;;1.42;100.00
77062;BME280;65989;51.686;5.138;2023-12-07T10:05:07;101996.53;;;1.46;100.00
77062;BME280;65989;51.686;5.138;2023-12-07T10:07:36;101994.41;;;1.49;100.00
77062;BME280;65989;51.686;5.138;2023-12-07T10:10:03;101988.06;;;1.52;100.00
77062;BME280;65989;51.686;5.138;2023-12-07T10:12:34;101981.19;;;1.59;100.00
77062;BME280;65989;51.686;5.138;2023-12-07T10:15:00;101989.84;;;1.68;100.00
77062;BME280;65989;51.686;5.138;2023-12-07T10:17:45;101974.47;;;1.73;100.00
77062;BME280;65989;51.686;5.138;2023-12-07T10:20:23;101971.34;;;1.78;100.00
77062;BME280;65989;51.686;5.138;2023-12-07T10:23:04;101970.22;;;1.81;100.00
77062;BME280;65989;51.686;5.138;2023-12-07T10:25:31;101974.94;;;1.85;100.00
77062;BME280;65989;51.686;5.138;2023-12-07T10:27:57;101975.41;;;1.89;100.00
77062;BME280;65989;51.686;5.138;2023-12-07T10:30:22;101959.09;;;1.87;100.00
77062;BME280;65989;51.686;5.138;2023-12-07T10:32:53;101951.91;;;1.89;100.00
77062;BME280;65989;51.686;5.138;2023-12-07T10:35:19;101950.25;;;1.96;100.00
77062;BME280;65989;51.686;5.138;2023-12-07T10:37:46;101943.06;;;1.98;100.00
77062;BME280;65989;51.686;5.138;2023-12-07T10:40:12;101945.50;;;2.00;100.00
77062;BME280;65989;51.686;5.138;2023-12-07T10:42:40;101943.03;;;2.06;100.00
77062;BME280;65989;51.686;5.138;2023-12-07T10:45:06;101951.19;;;2.12;100.00
77062;BME280;65989;51.686;5.138;2023-12-07T10:47:35;101940.22;;;2.16;100.00
77062;BME280;65989;51.686;5.138;2023-12-07T10:50:03;101935.16;;;2.15;100.00
77062;BME280;65989;51.686;5.138;2023-12-07T10:52:31;101933.81;;;2.19;100.00
77062;BME280;65989;51.686;5.138;2023-12-07T10:57:23;101923.19;;;2.20;100.00
77062;BME280;65989;51.686;5.138;2023-12-07T10:59:50;101920.59;;;2.20;100.00
77062;BME280;65989;51.686;5.138;2023-12-07T11:02:18;101925.16;;;2.27;100.00
77062;BME280;65989;51.686;5.138;2023-12-07T11:04:46;101920.56;;;2.29;100.00
77062;BME280;65989;51.686;5.138;2023-12-07T11:07:16;101912.53;;;2.30;100.00
77062;BME280;65989;51.686;5.138;2023-12-07T11:09:47;101899.91;;;2.34;100.00
77062;BME280;65989;51.686;5.138;2023-12-07T11:12:20;101903.66;;;2.39;100.00
77062;BME280;65989;51.686;5.138;2023-12-07T11:14:51;101884.19;;;2.42;100.00
77062;BME280;65989;51.686;5.138;2023-12-07T11:17:17;101871.50;;;2.31;100.00
77062;BME280;65989;51.686;5.138;2023-12-07T11:19:44;101870.81;;;2.37;100.00
77062;BME280;65989;51.686;5.138;2023-12-07T11:22:13;101861.97;;;2.38;100.00
77062;BME280;65989;51.686;5.138;2023-12-07T11:25:05;101870.59;;;2.47;100.00
77062;BME280;65989;51.686;5.138;2023-12-07T11:27:32;101865.09;;;2.33;100.00
77062;BME280;65989;51.686;5.138;2023-12-07T11:30:02;101872.44;;;2.38;100.00
77062;BME280;65989;51.686;5.138;2023-12-07T11:32:28;101866.91;;;2.33;100.00
77062;BME280;65989;51.686;5.138;2023-12-07T11:34:53;101869.34;;;2.34;100.00
77062;BME280;65989;51.686;5.138;2023-12-07T11:37:19;101866.75;;;2.34;100.00
77062;BME280;65989;51.686;5.138;2023-12-07T11:39:45;101862.94;;;2.37;100.00
77062;BME280;65989;51.686;5.138;2023-12-07T11:42:18;101857.44;;;2.32;100.00
77062;BME280;65989;51.686;5.138;2023-12-07T11:44:47;101855.00;;;2.30;100.00
77062;BME280;65989;51.686;5.138;2023-12-07T11:47:20;101850.28;;;2.26;100.00
77062;BME280;65989;51.686;5.138;2023-12-07T11:49:46;101847.66;;;2.26;100.00
77062;BME280;65989;51.686;5.138;2023-12-07T11:52:19;101848.47;;;2.26;100.00
77062;BME280;65989;51.686;5.138;2023-12-07T11:54:46;101840.63;;;2.26;100.00
77062;BME280;65989;51.686;5.138;2023-12-07T11:57:13;101837.50;;;2.31;100.00
77062;BME280;65989;51.686;5.138;2023-12-07T11:59:39;101828.84;;;2.30;100.00
77062;BME280;65989;51.686;5.138;2023-12-07T12:02:05;101826.06;;;2.32;100.00
77062;BME280;65989;51.686;5.138;2023-12-07T12:04:30;101823.72;;;2.37;100.00
77062;BME280;65989;51.686;5.138;2023-12-07T12:06:56;101812.44;;;2.36;100.00
77062;BME280;65989;51.686;5.138;2023-12-07T12:09:24;101809.94;;;2.43;100.00
77062;BME280;65989;51.686;5.138;2023-12-07T12:11:49;101802.59;;;2.47;100.00
77062;BME280;65989;51.686;5.138;2023-12-07T12:14:18;101803.03;;;2.50;100.00
77062;BME280;65989;51.686;5.138;2023-12-07T12:16:54;101794.50;;;2.57;100.00
77062;BME280;65989;51.686;5.138;2023-12-07T12:19:22;101790.34;;;2.62;100.00
77062;BME280;65989;51.686;5.138;2023-12-07T12:21:47;101784.13;;;2.63;100.00
77062;BME280;65989;51.686;5.138;2023-12-07T12:24:16;101788.66;;;2.69;100.00
77062;BME280;65989;51.686;5.138;2023-12-07T12:26:42;101775.72;;;2.68;100.00
77062;BME280;65989;51.686;5.138;2023-12-07T12:29:09;101781.25;;;2.73;100.00
77062;BME280;65989;51.686;5.138;2023-12-07T12:31:35;101785.22;;;2.69;100.00
77062;BME280;65989;51.686;5.138;2023-12-07T12:34:07;101779.97;;;2.69;100.00
77062;BME280;65989;51.686;5.138;2023-12-07T12:36:34;101764.63;;;2.66;100.00
77062;BME280;65989;51.686;5.138;2023-12-07T12:39:00;101750.75;;;2.65;100.00
77062;BME280;65989;51.686;5.138;2023-12-07T12:41:25;101728.72;;;2.60;100.00
77062;BME280;65989;51.686;5.138;2023-12-07T12:43:51;101719.69;;;2.62;100.00